Time;durP1;ratioP1;P1;durP2;ratioP2;P2;SDS_P1;SDS_P2;PMS_P1;PMS_P2;Temp;Humidity;BMP_temperature;BMP_pressure;BME280_temperature;BME280_humidity;BME280_pressure;Samples;Min_cycle;Max_cycle;Signal;HPM_P1;HPM_P2
2023/03/27 00:01:15;;;;;;;;;17.75;17.75;;;;;6.61;100.00;96865.41;4908846;28;102421;-72
2023/03/27 00:03:43;;;;;;;;;11.50;10.25;;;;;6.70;100.00;96868.66;4908102;28;102246;-72
2023/03/27 00:06:15;;;;;;;;;13.50;10.50;;;;;6.76;100.00;96862.38;4902677;28;101998;-71
2023/03/27 00:08:51;;;;;;;;;10.00;8.25;;;;;6.79;100.00;96861.97;4906655;28;103980;-72
2023/03/27 00:11:38;;;;;;;;;8.75;7.50;;;;;6.49;100.00;96815.31;4907950;28;110827;-72
2023/03/27 00:14:24;;;;;;;;;9.50;7.25;;;;;6.80;100.00;96866.28;4908319;28;102280;-71
2023/03/27 00:17:11;;;;;;;;;7.50;6.00;;;;;6.78;100.00;96864.84;4912111;28;102110;-71
2023/03/27 00:19:49;;;;;;;;;4.75;4.50;;;;;6.80;100.00;96868.97;4905034;28;103251;-71
2023/03/27 00:22:54;;;;;;;;;5.00;5.00;;;;;6.83;100.00;96860.47;4910783;28;102001;-71
2023/03/27 00:25:29;;;;;;;;;6.50;5.00;;;;;6.81;100.00;96861.72;4908319;28;102051;-71
2023/03/27 00:28:00;;;;;;;;;9.25;7.25;;;;;6.77;100.00;96858.66;4915626;28;102009;-71
2023/03/27 00:30:29;;;;;;;;;7.25;6.50;;;;;6.81;100.00;96859.03;4903755;28;103992;-71
2023/03/27 00:32:57;;;;;;;;;7.00;6.25;;;;;6.82;100.00;96856.16;4909126;28;102699;-70
2023/03/27 00:35:27;;;;;;;;;7.75;7.25;;;;;6.83;100.00;96857.78;4911058;28;102326;-70
2023/03/27 00:37:56;;;;;;;;;8.00;5.00;;;;;6.83;100.00;96852.41;4908898;28;101993;-70
2023/03/27 00:40:23;;;;;;;;;7.75;7.00;;;;;6.89;100.00;96856.91;4913578;28;104000;-71
2023/03/27 00:42:51;;;;;;;;;4.50;4.00;;;;;6.89;100.00;96856.91;4902208;28;102223;-71
2023/03/27 00:45:25;;;;;;;;;6.75;6.00;;;;;6.90;100.00;96852.34;4920012;28;102349;-71
2023/03/27 00:47:57;;;;;;;;;11.00;9.00;;;;;6.83;100.00;96852.41;4912820;28;102414;-71
2023/03/27 00:50:33;;;;;;;;;9.00;8.00;;;;;6.87;100.00;96847.44;4902960;28;108970;-70
2023/03/27 00:53:07;;;;;;;;;6.00;6.00;;;;;6.91;100.00;96852.13;4917948;28;103164;-70
2023/03/27 00:55:42;;;;;;;;;4.00;4.00;;;;;6.95;100.00;96845.28;4905312;28;102289;-71
2023/03/27 00:58:15;;;;;;;;;3.00;2.25;;;;;6.97;100.00;96845.06;4909591;28;102165;-71
2023/03/27 01:00:42;;;;;;;;;4.00;4.00;;;;;6.94;100.00;96832.88;4900409;28;103975;-72
2023/03/27 01:03:10;;;;;;;;;3.00;2.50;;;;;6.97;100.00;96840.50;4897645;28;103597;-72
2023/03/27 01:05:37;;;;;;;;;3.00;2.75;;;;;6.97;100.00;96843.22;4908673;28;102486;-71
2023/03/27 01:08:06;;;;;;;;;2.50;2.25;;;;;6.96;100.00;96836.19;4895534;28;106737;-72
2023/03/27 01:10:51;;;;;;;;;4.75;4.75;;;;;6.90;100.00;96829.00;4900392;28;104108;-71
2023/03/27 01:14:19;;;;;;;;;3.25;3.00;;;;;6.92;100.00;96821.53;4906589;28;102279;-72
2023/03/27 01:17:23;;;;;;;;;3.50;3.00;;;;;6.93;100.00;96814.31;4870983;28;102249;-71
2023/03/27 01:20:19;;;;;;;;;4.50;3.75;;;;;6.89;100.00;96819.28;4869984;28;102316;-70
2023/03/27 01:23:22;;;;;;;;;10.00;9.00;;;;;6.81;100.00;96816.88;4874096;28;108725;-70
2023/03/27 01:26:50;;;;;;;;;12.67;11.00;;;;;6.72;100.00;96820.91;4873491;28;102391;-72
2023/03/27 01:29:47;;;;;;;;;9.75;8.50;;;;;6.73;100.00;96809.94;4867086;28;103047;-71
2023/03/27 01:32:36;;;;;;;;;12.50;12.50;;;;;6.68;100.00;96806.28;4877175;28;102418;-73
2023/03/27 01:35:17;;;;;;;;;3.00;2.75;;;;;6.73;100.00;96806.44;4873431;28;110252;-72
2023/03/27 01:38:14;;;;;;;;;19.50;16.75;;;;;6.60;100.00;96795.81;4878170;28;102307;-72
2023/03/27 01:41:01;;;;;;;;;18.75;16.00;;;;;6.65;100.00;96791.44;4870686;28;102311;-73
2023/03/27 01:43:40;;;;;;;;;15.25;14.75;;;;;6.62;100.00;96786.47;4872852;28;102035;-73
2023/03/27 01:46:25;;;;;;;;;15.00;13.25;;;;;6.63;100.00;96792.69;4872403;28;103981;-73
2023/03/27 01:49:06;;;;;;;;;18.75;15.00;;;;;6.56;100.00;96794.63;4876731;28;102207;-72
2023/03/27 01:51:45;;;;;;;;;14.00;13.25;;;;;6.46;100.00;96786.22;4870654;28;102238;-72
2023/03/27 01:54:31;;;;;;;;;12.75;11.00;;;;;6.50;100.00;96790.94;4851075;28;102138;-72
2023/03/27 01:57:14;;;;;;;;;9.00;8.00;;;;;6.40;100.00;96765.63;4892312;28;108510;-72
2023/03/27 01:59:47;;;;;;;;;7.00;6.00;;;;;6.60;100.00;96783.22;4885654;28;102739;-73
2023/03/27 02:02:22;;;;;;;;;8.75;8.75;;;;;6.56;100.00;96775.81;4883706;28;101982;-73
2023/03/27 02:05:00;;;;;;;;;10.50;10.25;;;;;6.51;100.00;96768.41;4882900;28;102084;-73
2023/03/27 02:07:37;;;;;;;;;12.50;10.25;;;;;6.46;100.00;96760.19;4880399;28;109140;-72
2023/03/27 02:10:10;;;;;;;;;15.00;13.50;;;;;6.40;100.00;96755.69;4875563;28;101903;-73
2023/03/27 02:12:42;;;;;;;;;14.25;14.00;;;;;6.39;100.00;96761.31;4882215;28;102025;-73
2023/03/27 02:15:15;;;;;;;;;10.00;9.00;;;;;6.43;100.00;96757.13;4895094;28;102059;-73
2023/03/27 02:18:05;;;;;;;;;4.50;4.00;;;;;6.48;100.00;96747.41;4907495;28;104023;-73
2023/03/27 02:20:33;;;;;;;;;9.00;6.00;;;;;6.53;100.00;96750.22;4910109;28;102288;-74
2023/03/27 02:23:00;;;;;;;;;4.75;4.75;;;;;6.59;100.00;96745.81;4901460;28;102280;-73
2023/03/27 02:25:33;;;;;;;;;3.50;2.00;;;;;6.62;100.00;96742.69;4903932;28;102411;-72
2023/03/27 02:28:28;;;;;;;;;3.00;2.75;;;;;6.66;100.00;96747.41;4915668;28;103712;-72
2023/03/27 02:31:05;;;;;;;;;3.00;3.00;;;;;6.63;100.00;96749.72;4908671;28;102526;-73
2023/03/27 02:34:07;;;;;;;;;2.50;1.75;;;;;6.65;100.00;96758.38;4910258;28;101972;-73
2023/03/27 02:36:44;;;;;;;;;1.50;1.50;;;;;6.66;100.00;96751.97;4913246;28;102521;-73
2023/03/27 02:39:37;;;;;;;;;2.75;1.00;;;;;6.65;100.00;96759.22;4909039;28;103735;-73
2023/03/27 02:42:31;;;;;;;;;3.00;3.00;;;;;6.68;100.00;96761.44;4910379;28;102177;-72
2023/03/27 02:45:19;;;;;;;;;2.25;2.25;;;;;6.66;100.00;96762.72;4915337;28;105714;-72
2023/03/27 02:48:13;;;;;;;;;2.50;2.00;;;;;6.70;100.00;96763.91;4906388;28;102219;-72
2023/03/27 02:50:48;;;;;;;;;3.00;2.00;;;;;6.68;100.00;96763.28;4898818;28;108807;-73
2023/03/27 02:53:20;;;;;;;;;3.00;1.75;;;;;6.65;100.00;96761.06;4910491;28;102432;-72
2023/03/27 02:55:56;;;;;;;;;4.50;4.00;;;;;6.64;100.00;96770.16;4908444;28;102114;-73
2023/03/27 02:58:42;;;;;;;;;7.25;7.00;;;;;6.56;100.00;96768.59;4916388;28;102076;-73
2023/03/27 03:01:12;;;;;;;;;13.50;11.75;;;;;6.51;100.00;96775.66;4897265;28;108683;-72
2023/03/27 03:03:52;;;;;;;;;21.50;20.00;;;;;6.41;100.00;96786.06;4906968;28;102165;-73
2023/03/27 03:06:21;;;;;;;;;19.00;18.25;;;;;6.36;100.00;96780.50;4908353;28;102137;-72
2023/03/27 03:08:49;;;;;;;;;19.50;14.00;;;;;6.36;100.00;96781.34;4919000;28;102350;-73
2023/03/27 03:11:16;;;;;;;;;19.25;17.50;;;;;6.30;100.00;96786.78;4915007;28;104176;-72
2023/03/27 03:13:43;;;;;;;;;14.75;10.75;;;;;6.28;100.00;96779.75;4898008;28;103350;-73
2023/03/27 03:16:10;;;;;;;;;20.75;17.75;;;;;6.19;100.00;96786.44;4909044;28;102050;-73
2023/03/27 03:18:37;;;;;;;;;16.50;15.00;;;;;6.12;100.00;96782.97;4911888;28;102008;-73
2023/03/27 03:21:04;;;;;;;;;22.25;18.50;;;;;6.20;100.00;96788.09;4902206;28;104655;-72
2023/03/27 03:23:31;;;;;;;;;15.25;14.00;;;;;6.26;100.00;96784.50;4889456;28;102090;-73
2023/03/27 03:25:58;;;;;;;;;15.00;12.00;;;;;6.30;100.00;96789.47;4916172;28;101985;-72
2023/03/27 03:28:25;;;;;;;;;11.00;8.75;;;;;6.31;100.00;96783.03;4922035;28;102575;-72
2023/03/27 03:30:52;;;;;;;;;10.50;9.25;;;;;6.37;100.00;96782.16;4916156;28;104010;-72
2023/03/27 03:33:20;;;;;;;;;13.00;11.75;;;;;6.33;100.00;96787.16;4914734;28;102547;-72
2023/03/27 03:35:50;;;;;;;;;12.00;12.00;;;;;6.30;100.00;96784.91;4906764;28;102078;-72
2023/03/27 03:38:23;;;;;;;;;11.75;11.25;;;;;6.28;100.00;96785.13;4907481;28;102233;-72
2023/03/27 03:40:52;;;;;;;;;13.50;12.50;;;;;6.31;100.00;96783.03;4899507;28;104544;-72
2023/03/27 03:43:21;;;;;;;;;13.00;8.00;;;;;6.31;100.00;96788.41;4908964;28;102198;-72
2023/03/27 03:45:49;;;;;;;;;10.00;10.00;;;;;6.35;100.00;96785.06;4916273;28;102043;-72
2023/03/27 03:48:16;;;;;;;;;15.50;13.50;;;;;6.31;100.00;96786.53;4907885;28;102365;-72
2023/03/27 03:50:44;;;;;;;;;18.50;14.75;;;;;6.31;100.00;96789.22;4901982;28;112299;-73
2023/03/27 03:53:13;;;;;;;;;19.75;16.00;;;;;6.31;100.00;96788.41;4930451;28;102215;-72
2023/03/27 03:55:40;;;;;;;;;15.00;10.75;;;;;6.33;100.00;96783.66;4913375;28;103186;-72
2023/03/27 03:58:08;;;;;;;;;11.50;11.50;;;;;6.32;100.00;96779.31;4915164;28;101997;-72
2023/03/27 04:00:39;;;;;;;;;19.00;18.00;;;;;6.26;100.00;96781.00;4913833;28;103665;-72
2023/03/27 04:03:08;;;;;;;;;17.25;14.25;;;;;6.32;100.00;96790.88;4908632;28;102086;-72
2023/03/27 04:05:37;;;;;;;;;14.25;13.25;;;;;6.34;100.00;96791.50;4912014;28;102462;-73
2023/03/27 04:08:07;;;;;;;;;12.75;10.00;;;;;6.41;100.00;96788.75;4913205;28;102414;-72
2023/03/27 04:10:37;;;;;;;;;5.25;4.50;;;;;6.45;100.00;96790.75;4909972;28;104219;-73
2023/03/27 04:13:05;;;;;;;;;6.25;4.25;;;;;6.46;100.00;96791.59;4917403;28;102519;-72
2023/03/27 04:15:32;;;;;;;;;7.25;3.50;;;;;6.41;100.00;96789.56;4905072;28;103438;-72
2023/03/27 04:17:59;;;;;;;;;15.00;10.50;;;;;6.30;100.00;96779.56;4911127;28;102347;-70
2023/03/27 04:20:27;;;;;;;;;14.00;12.00;;;;;6.38;100.00;96789.19;4908694;28;104365;-72
2023/03/27 04:22:54;;;;;;;;;17.75;17.00;;;;;6.25;100.00;96790.13;4912928;28;102498;-71
2023/03/27 04:25:23;;;;;;;;;21.00;15.75;;;;;6.25;100.00;96782.88;4914812;28;103147;-71
2023/03/27 04:27:50;;;;;;;;;20.50;17.00;;;;;6.18;100.00;96775.91;4918702;28;102117;-73
2023/03/27 04:30:22;;;;;;;;;16.50;15.00;;;;;6.16;100.00;96781.50;4902246;28;104073;-73
2023/03/27 04:32:52;;;;;;;;;29.75;24.00;;;;;6.05;100.00;96782.19;4910886;28;102343;-73
2023/03/27 04:35:20;;;;;;;;;30.00;24.75;;;;;6.00;100.00;96786.56;4908316;28;101985;-72
2023/03/27 04:37:47;;;;;;;;;32.50;28.25;;;;;6.01;100.00;96775.63;4910125;28;102334;-73
2023/03/27 04:40:19;;;;;;;;;32.25;25.75;;;;;6.03;100.00;96776.25;4913657;28;104205;-72
2023/03/27 04:42:48;;;;;;;;;26.25;24.50;;;;;5.99;100.00;96774.22;4915433;28;102136;-71
2023/03/27 04:45:19;;;;;;;;;30.00;22.00;;;;;6.01;100.00;96772.13;4907163;28;101979;-71
2023/03/27 04:47:47;;;;;;;;;22.50;18.50;;;;;5.99;100.00;96777.69;4931018;28;102143;-71
2023/03/27 04:50:15;;;;;;;;;24.25;22.25;;;;;5.96;100.00;96778.13;4914818;28;103984;-71
2023/03/27 04:52:42;;;;;;;;;29.50;27.00;;;;;5.92;100.00;96786.84;4913217;28;102088;-71
2023/03/27 04:55:11;;;;;;;;;21.25;18.75;;;;;5.96;100.00;96780.81;4915296;28;101880;-71
2023/03/27 04:57:38;;;;;;;;;20.00;19.25;;;;;6.00;100.00;96783.88;4911358;28;102042;-72
2023/03/27 05:00:17;;;;;;;;;23.75;20.00;;;;;5.96;100.00;96783.50;4925568;28;103981;-72
2023/03/27 05:02:46;;;;;;;;;23.00;18.50;;;;;6.00;100.00;96787.38;4909331;28;102034;-71
2023/03/27 05:08:40;;;;;;;;;24.75;21.50;;;;;5.96;100.00;96796.91;4913884;28;102115;-72
2023/03/27 05:11:07;;;;;;;;;33.00;26.00;;;;;5.88;100.00;96789.13;4912967;28;104044;-72
2023/03/27 05:13:34;;;;;;;;;30.00;24.25;;;;;5.92;100.00;96789.50;4917116;28;102219;-72
2023/03/27 05:16:01;;;;;;;;;25.75;23.00;;;;;5.96;100.00;96783.50;4904034;28;102281;-70
2023/03/27 05:18:29;;;;;;;;;20.75;19.50;;;;;5.98;100.00;96789.47;4900721;28;102221;-74
2023/03/27 05:20:57;;;;;;;;;47.50;40.00;;;;;6.08;100.00;96787.13;4898516;28;104006;-72
2023/03/27 05:23:25;;;;;;;;;32.25;29.25;;;;;6.07;100.00;96787.34;4913841;28;102351;-72
2023/03/27 05:25:55;;;;;;;;;21.00;20.25;;;;;6.05;100.00;96789.41;4909801;28;102520;-71
2023/03/27 05:28:26;;;;;;;;;21.00;18.50;;;;;6.09;100.00;96780.72;4906498;28;102102;-71
2023/03/27 05:30:55;;;;;;;;;22.75;18.25;;;;;6.11;100.00;96788.56;4910970;28;104113;-71
2023/03/27 05:33:23;;;;;;;;;23.00;18.00;;;;;6.11;100.00;96788.56;4912798;28;102270;-71
2023/03/27 05:35:51;;;;;;;;;17.00;15.75;;;;;6.15;100.00;96790.59;4908321;28;102228;-71
2023/03/27 05:38:18;;;;;;;;;19.00;14.75;;;;;6.17;100.00;96798.41;4913946;28;101948;-71
2023/03/27 05:40:45;;;;;;;;;15.00;13.25;;;;;6.20;100.00;96793.44;4909219;28;104035;-71
2023/03/27 05:43:12;;;;;;;;;17.75;12.00;;;;;6.21;100.00;96794.28;4913325;28;102037;-71
2023/03/27 05:45:39;;;;;;;;;12.00;10.00;;;;;6.26;100.00;96787.19;4917508;28;102003;-71
2023/03/27 05:48:07;;;;;;;;;14.50;12.25;;;;;6.24;100.00;96789.28;4914725;28;102130;-72
2023/03/27 05:50:34;;;;;;;;;16.25;14.00;;;;;6.24;100.00;96789.28;4886360;28;104204;-71
2023/03/27 05:53:05;;;;;;;;;14.00;12.50;;;;;6.34;100.00;96796.03;4917989;28;101945;-71
2023/03/27 05:55:32;;;;;;;;;14.50;13.25;;;;;6.30;100.00;96797.50;4915596;28;101912;-72
2023/03/27 05:57:59;;;;;;;;;14.75;12.00;;;;;6.38;100.00;96806.13;4917098;28;102087;-71
2023/03/27 06:00:30;;;;;;;;;8.75;8.25;;;;;6.42;100.00;96798.44;4901306;28;104021;-71
2023/03/27 06:03:00;;;;;;;;;14.25;12.50;;;;;6.42;100.00;96814.53;4912021;28;102294;-71
2023/03/27 06:05:28;;;;;;;;;4.00;1.00;;;;;6.39;100.00;96817.69;4914283;28;102228;-71
2023/03/27 06:07:57;;;;;;;;;13.00;13.00;;;;;6.38;100.00;96810.66;4918143;28;102881;-71
2023/03/27 06:10:29;;;;;;;;;21.75;19.00;;;;;6.33;100.00;96808.63;4915001;28;104100;-71
2023/03/27 06:13:05;;;;;;;;;23.50;19.25;;;;;6.32;100.00;96814.22;4909466;28;101986;-71
2023/03/27 06:15:32;;;;;;;;;26.25;21.25;;;;;6.30;100.00;96830.53;4912599;28;102221;-72
2023/03/27 06:18:00;;;;;;;;;22.50;22.00;;;;;6.27;100.00;96831.78;4914374;28;102047;-72
2023/03/27 06:20:27;;;;;;;;;21.75;18.00;;;;;6.30;100.00;96838.59;4906941;28;104024;-72
2023/03/27 06:22:58;;;;;;;;;20.75;17.00;;;;;6.35;100.00;96830.69;4912526;28;102288;-72
2023/03/27 06:25:26;;;;;;;;;8.75;6.00;;;;;6.30;100.00;96838.59;4914442;28;102458;-72
2023/03/27 06:27:53;;;;;;;;;23.50;20.50;;;;;6.28;100.00;96838.81;4913345;28;101983;-71
2023/03/27 06:30:23;;;;;;;;;18.75;15.75;;;;;6.34;100.00;96847.03;4911044;28;104114;-72
2023/03/27 06:32:56;;;;;;;;;29.50;22.75;;;;;6.25;100.00;96849.16;4913451;28;102526;-72
2023/03/27 06:35:28;;;;;;;;;26.50;25.00;;;;;6.23;100.00;96857.41;4913826;28;101979;-71
2023/03/27 06:37:57;;;;;;;;;31.00;25.00;;;;;6.22;100.00;96861.13;4904408;28;102559;-72
2023/03/27 06:40:26;;;;;;;;;25.25;20.75;;;;;6.27;100.00;96869.34;4906150;28;104122;-71
2023/03/27 06:42:55;;;;;;;;;30.25;25.25;;;;;6.22;100.00;96877.22;4913524;28;101997;-71
2023/03/27 06:45:24;;;;;;;;;24.50;21.75;;;;;6.14;100.00;96874.81;4911091;28;103450;-71
2023/03/27 06:47:54;;;;;;;;;24.00;20.25;;;;;6.15;100.00;96879.16;4918215;28;102252;-71
2023/03/27 06:50:42;;;;;;;;;26.00;20.67;;;;;6.06;100.00;96879.59;4545206;28;10009561;-71
2023/03/27 06:53:10;;;;;;;;;26.50;23.25;;;;;6.03;100.00;96872.81;4925763;28;104391;-71
2023/03/27 06:55:52;;;;;;;;;25.50;17.00;;;;;6.03;100.00;96882.72;4872737;28;102170;-71
2023/03/27 06:58:20;;;;;;;;;31.00;23.25;;;;;6.05;100.00;96877.97;4911773;28;102023;-72
2023/03/27 07:00:48;;;;;;;;;27.25;24.00;;;;;6.01;100.00;96868.69;4909468;28;102297;-70
2023/03/27 07:03:17;;;;;;;;;34.50;28.25;;;;;6.03;100.00;96886.25;4903268;28;104154;-71
2023/03/27 07:05:44;;;;;;;;;33.50;29.25;;;;;6.05;100.00;96891.38;4911971;28;102248;-71
2023/03/27 07:08:13;;;;;;;;;29.75;27.25;;;;;6.01;100.00;96900.88;4910218;28;102442;-71
2023/03/27 07:10:53;;;;;;;;;32.75;30.75;;;;;6.03;100.00;96888.09;4915765;28;102275;-70
2023/03/27 07:13:23;;;;;;;;;33.00;30.75;;;;;5.98;100.00;96894.09;4909906;28;103189;-70
2023/03/27 07:15:50;;;;;;;;;36.00;31.00;;;;;5.99;100.00;96892.25;4911495;28;102443;-71
2023/03/27 07:18:17;;;;;;;;;35.25;29.50;;;;;6.13;100.00;96889.25;4913826;28;102269;-71
2023/03/27 07:20:46;;;;;;;;;25.25;22.00;;;;;6.26;100.00;96896.41;4916186;28;102445;-71
2023/03/27 07:23:13;;;;;;;;;31.25;29.25;;;;;6.28;100.00;96897.84;4908249;28;104338;-70
2023/03/27 07:25:39;;;;;;;;;34.50;30.25;;;;;6.18;100.00;96899.34;4918739;28;102317;-71
2023/03/27 07:28:10;;;;;;;;;33.25;28.00;;;;;6.16;100.00;96883.47;4911669;28;102216;-70
2023/03/27 07:30:38;;;;;;;;;43.50;36.75;;;;;6.19;100.00;96909.88;4915015;28;102145;-70
2023/03/27 07:33:08;;;;;;;;;38.50;33.50;;;;;6.19;100.00;96909.06;4914035;28;104040;-70
2023/03/27 07:35:46;;;;;;;;;35.00;26.00;;;;;6.28;100.00;96922.00;4918791;28;102284;-69
2023/03/27 07:39:02;;;;;;;;;34.00;29.25;;;;;6.27;100.00;96928.41;4904822;28;101963;-70
2023/03/27 07:41:29;;;;;;;;;28.75;25.75;;;;;6.39;100.00;96927.75;4909058;28;101963;-70
2023/03/27 07:43:57;;;;;;;;;32.75;27.75;;;;;6.37;100.00;96924.44;4913842;28;104035;-70
2023/03/27 07:46:26;;;;;;;;;34.00;27.25;;;;;6.41;100.00;96921.09;4909956;28;102067;-69
2023/03/27 07:48:55;;;;;;;;;38.25;33.50;;;;;6.39;100.00;96930.41;4912574;28;103056;-70
2023/03/27 07:51:23;;;;;;;;;33.75;29.50;;;;;6.40;100.00;96932.03;4911805;28;101972;-70
2023/03/27 07:53:54;;;;;;;;;31.50;27.00;;;;;6.41;100.00;96931.00;4912182;28;104047;-69
2023/03/27 07:56:22;;;;;;;;;41.00;31.75;;;;;6.37;99.53;96937.84;4911496;28;102021;-69
2023/03/27 07:58:50;;;;;;;;;39.25;35.25;;;;;6.33;100.00;96926.72;4910529;28;111662;-70
2023/03/27 08:01:17;;;;;;;;;33.25;31.25;;;;;6.36;100.00;96930.81;4904489;28;102244;-70
2023/03/27 08:03:45;;;;;;;;;31.25;27.75;;;;;6.52;100.00;96939.22;4908591;28;103998;-70
2023/03/27 08:06:13;;;;;;;;;35.50;30.00;;;;;6.53;100.00;96942.72;4910109;28;102172;-70
2023/03/27 08:08:40;;;;;;;;;35.00;32.50;;;;;6.51;100.00;96936.75;4904614;28;101969;-70
2023/03/27 08:11:07;;;;;;;;;42.00;34.75;;;;;6.39;100.00;96943.84;4909289;28;102423;-70
2023/03/27 08:13:53;;;;;;;;;36.25;30.00;;;;;6.46;100.00;96947.31;4903839;28;104070;-71
2023/03/27 08:16:20;;;;;;;;;46.75;34.50;;;;;6.52;100.00;96954.50;4911107;28;102190;-71
2023/03/27 08:18:48;;;;;;;;;31.50;27.00;;;;;6.55;100.00;96948.69;4912779;28;102414;-70
2023/03/27 08:21:15;;;;;;;;;39.25;31.50;;;;;6.40;100.00;96956.19;4902897;28;103325;-70
2023/03/27 08:23:42;;;;;;;;;41.00;35.50;;;;;6.36;100.00;96955.00;4910741;28;103971;-70
2023/03/27 08:26:09;;;;;;;;;56.50;39.75;;;;;6.34;100.00;96957.09;4912218;28;102185;-71
2023/03/27 08:28:37;;;;;;;;;46.50;37.25;;;;;6.26;100.00;96958.97;4916075;28;102040;-70
2023/03/27 08:31:10;;;;;;;;;58.67;43.00;;;;;6.07;100.00;96959.91;4916458;28;102281;-70
2023/03/27 08:33:38;;;;;;;;;59.00;46.00;;;;;5.75;100.00;96944.72;4913435;28;108648;-68
2023/03/27 08:36:06;;;;;;;;;60.00;45.75;;;;;5.80;100.00;96969.88;4887901;28;102424;-68
2023/03/27 08:38:38;;;;;;;;;57.00;45.67;;;;;5.65;100.00;96976.50;4908747;28;102156;-69
2023/03/27 08:41:06;;;;;;;;;63.33;48.33;;;;;5.50;100.00;96974.03;4916775;28;102241;-69
2023/03/27 08:43:40;;;;;;;;;57.33;45.00;;;;;5.42;100.00;96982.31;4917618;28;104011;-70
2023/03/27 08:46:34;;;;;;;;;66.67;49.33;;;;;5.48;100.00;96996.72;4902100;28;103352;-68
2023/03/27 08:49:21;;;;;;;;;63.67;47.33;;;;;5.56;100.00;96991.16;4910092;28;102271;-70
2023/03/27 08:51:55;;;;;;;;;54.33;42.67;;;;;5.60;100.00;96989.69;4909914;28;102015;-70
2023/03/27 08:54:27;;;;;;;;;64.33;47.00;;;;;5.56;100.00;97000.03;4887273;28;104078;-69
2023/03/27 08:56:54;;;;;;;;;57.00;44.67;;;;;5.47;100.00;97000.44;4912569;28;102201;-69
2023/03/27 08:59:25;;;;;;;;;74.33;50.00;;;;;5.50;100.00;97010.75;4905738;28;101973;-69
2023/03/27 09:02:22;;;;;;;;;57.00;44.00;;;;;5.45;100.00;97027.44;4918366;28;102253;-70
2023/03/27 09:04:58;;;;;;;;;65.33;50.00;;;;;5.31;100.00;97023.94;4905255;28;109735;-70
2023/03/27 09:07:36;;;;;;;;;70.00;51.00;;;;;5.32;100.00;97030.13;4915351;28;104156;-70
2023/03/27 09:10:28;;;;;;;;;70.00;50.67;;;;;5.17;100.00;97042.94;4916748;28;101989;-70
2023/03/27 09:13:20;;;;;;;;;56.67;43.00;;;;;5.10;100.00;97042.06;4902730;28;104740;-69
2023/03/27 09:16:32;;;;;;;;;69.00;50.67;;;;;5.06;100.00;97044.34;4913448;28;108831;-69
2023/03/27 09:19:19;;;;;;;;;64.67;45.33;;;;;4.86;100.00;97049.66;4838036;28;102530;-69
2023/03/27 09:21:53;;;;;;;;;59.67;45.00;;;;;4.47;100.00;97049.56;4838221;28;102008;-69
2023/03/27 09:24:36;;;;;;;;;48.00;41.00;;;;;4.28;100.00;97051.13;4888799;28;102353;-69
2023/03/27 09:27:23;;;;;;;;;41.33;33.00;;;;;4.09;98.27;97065.25;4911972;28;108713;-70
2023/03/27 09:29:57;;;;;;;;;42.67;38.33;;;;;3.79;97.92;97029.06;4915928;28;102140;-69
2023/03/27 09:32:32;;;;;;;;;46.67;37.67;;;;;4.02;98.37;97075.91;4913239;28;103181;-70
2023/03/27 09:34:59;;;;;;;;;47.00;36.33;;;;;3.87;96.35;97087.75;4908243;28;102063;-70
2023/03/27 09:37:27;;;;;;;;;44.67;34.67;;;;;3.88;97.25;97082.19;4913284;28;104175;-70
2023/03/27 09:39:57;;;;;;;;;45.33;38.00;;;;;3.84;96.10;97088.13;4902056;28;101993;-69
2023/03/27 09:42:30;;;;;;;;;50.67;41.00;;;;;3.84;97.66;97088.13;4905707;28;102361;-70
2023/03/27 09:45:03;;;;;;;;;45.33;36.67;;;;;3.78;95.77;97094.28;4915649;28;102222;-71
2023/03/27 09:47:37;;;;;;;;;45.33;37.00;;;;;3.72;95.03;97095.06;4909716;28;106521;-71
2023/03/27 09:50:28;;;;;;;;;32.00;29.00;;;;;3.73;95.07;97115.41;4913734;28;102439;-70
2023/03/27 09:53:21;;;;;;;;;42.00;37.33;;;;;3.74;95.61;97109.06;4902916;28;102044;-70
2023/03/27 09:55:55;;;;;;;;;33.00;31.00;;;;;3.71;94.67;97122.78;4901056;28;102399;-70
2023/03/27 09:58:31;;;;;;;;;36.67;32.00;;;;;3.71;93.91;97122.78;4913529;28;103994;-70
2023/03/27 10:01:18;;;;;;;;;40.00;33.00;;;;;3.46;93.63;97133.09;4916651;28;102326;-70
2023/03/27 10:03:51;;;;;;;;;42.00;32.00;;;;;3.41;92.12;97144.34;4909870;28;102228;-70
2023/03/27 10:06:26;;;;;;;;;43.00;34.33;;;;;3.43;94.22;97142.28;4912200;28;102114;-70
2023/03/27 10:08:55;;;;;;;;;38.33;31.33;;;;;3.48;93.43;97149.72;4906946;28;103993;-69
2023/03/27 10:11:26;;;;;;;;;37.00;27.33;;;;;3.37;91.98;97156.44;4913170;28;102061;-72
2023/03/27 10:13:54;;;;;;;;;34.33;25.00;;;;;3.23;93.93;97161.84;4913554;28;102214;-70
2023/03/27 10:16:22;;;;;;;;;33.00;29.67;;;;;3.00;94.30;97170.84;4918083;28;102571;-70
2023/03/27 10:18:54;;;;;;;;;30.75;24.25;;;;;2.87;95.01;97173.38;4915344;28;103955;-71
2023/03/27 10:21:34;;;;;;;;;31.00;23.75;;;;;2.88;93.73;97177.66;4872409;28;102187;-71
2023/03/27 10:24:17;;;;;;;;;31.25;20.75;;;;;2.92;93.99;97178.16;4916101;28;101989;-71
2023/03/27 10:26:47;;;;;;;;;29.75;24.25;;;;;2.81;94.28;97182.13;4917220;28;102451;-70
2023/03/27 10:29:24;;;;;;;;;28.75;22.00;;;;;2.83;93.58;97195.28;4909330;28;104011;-70
2023/03/27 10:31:57;;;;;;;;;32.00;27.33;;;;;2.80;93.71;97199.13;4917411;28;101992;-70
2023/03/27 10:34:49;;;;;;;;;46.33;34.00;;;;;2.63;94.06;97184.34;4914251;28;102350;-72
2023/03/27 10:37:21;;;;;;;;;50.67;37.67;;;;;2.52;96.15;97209.66;4909766;28;102331;-70
2023/03/27 10:39:51;;;;;;;;;40.33;31.67;;;;;2.26;95.43;97219.94;4908421;28;103958;-71
2023/03/27 10:42:18;;;;;;;;;36.33;31.33;;;;;2.13;95.72;97217.09;4903600;28;102530;-70
2023/03/27 10:44:47;;;;;;;;;26.00;22.00;;;;;2.07;94.60;97217.84;4916377;28;103192;-70
2023/03/27 10:47:19;;;;;;;;;57.00;40.67;;;;;2.09;94.16;97224.63;4911850;28;102567;-70
2023/03/27 10:50:15;;;;;;;;;53.00;40.67;;;;;2.07;94.53;97231.16;4908860;28;104054;-71
2023/03/27 10:53:02;;;;;;;;;37.67;34.00;;;;;2.09;93.52;97229.13;4917029;28;102788;-70
2023/03/27 10:55:43;;;;;;;;;46.00;35.00;;;;;2.01;91.79;97239.88;4906313;28;102214;-70
2023/03/27 10:58:24;;;;;;;;;42.00;34.00;;;;;2.08;89.74;97240.78;4914898;28;104498;-68
2023/03/27 11:01:19;;;;;;;;;37.00;29.00;;;;;2.13;88.17;97239.25;4889788;28;108898;-70
2023/03/27 11:04:02;;;;;;;;;32.33;26.67;;;;;2.24;89.49;97243.31;4907010;28;103092;-70
2023/03/27 11:06:38;;;;;;;;;31.67;25.00;;;;;2.16;85.55;97259.41;4913093;28;102018;-71
2023/03/27 11:09:24;;;;;;;;;29.00;23.00;;;;;2.14;85.67;97253.41;4916350;28;102122;-71
2023/03/27 11:11:57;;;;;;;;;34.33;26.00;;;;;2.20;85.17;97263.38;4909115;28;108756;-70
2023/03/27 11:14:43;;;;;;;;;24.33;21.00;;;;;2.23;85.60;97260.31;4912684;28;102259;-70
2023/03/27 11:17:17;;;;;;;;;35.33;31.33;;;;;2.28;84.96;97265.13;4913586;28;102446;-70
2023/03/27 11:19:44;;;;;;;;;32.33;27.00;;;;;2.29;85.62;97272.94;4910554;28;102046;-69
2023/03/27 11:22:18;;;;;;;;;32.33;27.67;;;;;2.37;85.61;97286.19;4913666;28;104061;-70
2023/03/27 11:25:10;;;;;;;;;23.67;22.33;;;;;2.34;84.32;97275.06;4906891;28;102473;-70
2023/03/27 11:27:44;;;;;;;;;23.50;19.25;;;;;2.20;83.69;97290.84;4915018;28;101983;-70
2023/03/27 11:30:45;;;;;;;;;20.00;20.00;;;;;2.27;83.37;97285.63;4916789;28;102218;-70
2023/03/27 11:33:53;;;;;;;;;20.33;17.33;;;;;2.11;82.97;97293.78;4888877;28;108875;-71
2023/03/27 11:36:43;;;;;;;;;22.00;19.00;;;;;2.23;84.20;97300.31;4906543;28;102450;-70
2023/03/27 11:39:29;;;;;;;;;18.67;17.00;;;;;2.21;82.53;97303.16;4911095;28;102198;-70
2023/03/27 11:41:59;;;;;;;;;23.67;21.33;;;;;2.21;83.71;97321.00;4908814;28;102120;-70
2023/03/27 11:44:29;;;;;;;;;29.33;22.00;;;;;2.23;83.80;97329.66;4907754;28;104317;-69
2023/03/27 11:47:20;;;;;;;;;25.67;22.00;;;;;2.18;83.34;97334.69;4908162;28;102290;-71
2023/03/27 11:50:11;;;;;;;;;25.33;22.00;;;;;2.18;81.57;97330.19;4911795;28;102044;-70
2023/03/27 11:53:09;;;;;;;;;31.67;23.67;;;;;2.10;81.45;97342.75;4916164;28;102057;-71